Mc Comb, Pike County, John E Lewis Field Mc Comb US
ICAO: KMCB
IATA: MCB
Category: Medium
Scheduled Services: No

Elevation: 413 ft
TransAlt. 18000 ft.

Airport Communications:
ASOS:119.025
HOUSTON CNTR:133.5
GREENWOOD RDO:122.2
CTAF/UNICOM:123.05

KMCB Zoom In..

If you have problems with the map follow the link
https://www.worldairports.se/pages/airport.php?
ICAO=KMCB

Runways:

(A) RW 15 length 5000 ft width 100 ft
ILS 109.10 / hdg 153

(B) RW 33 length 5000 ft width 100 ft
---- / hdg 333

Location; KMCB
Day. 14 / Time. 11.53 Zulu
* Altimeter: 30.33
* Temperature: 02° c. 35.6°f.
* Wind from: 330° Speed 09 kn.
Dewpoint: 00° c.
Visibility: 3 Statute Miles.
Clouds: Broken 600 ft.
Clouds: Overcast 1100 ft.
Conditions: Mist.

KMCB 141153Z AUTO 33009KT 3SM BR BKN006 OVC011 02/00 A3033 RMK AO2 CIG 004V010 SLP271 T00170000 10028 20017 53006


Wind From 330°
Speed 09 kn.

 
 
jpsmedia.com for Web Design worldairports.se 2018   terms of use